Terminal Aerodrome Forecast
Issued by NWS Albuquerque, NM

Home | Current Version | Previous Version | Text Only | Print | Product List | Glossary On
Versions: 1 2 3 4 5 6 7 8 9 10 11 12 13
000
FTUS45 KABQ 260200 AAB
TAFABQ
TAF AMD
KABQ 260257Z 2603/2624 31011KT P6SM SCT050 BKN090
      TEMPO 2604/2608 5SM -SN OVC030
     FM261100 VRB03KT P6SM BKN050
     FM261800 28013G19KT P6SM BKN050=

USA.gov is the U.S. government's official web portal to all federal, state and local government web resources and services.